Astra — PB4187 — position and weather

sailwx.info

Track history (hours):
 
Tides and Currents Weather Stations Pressure Air Temp Water Temp Dewpoint Dewpoint Depression Visibility Wind Speed Wind Dir Waves Ship Positions

Astra

Last reported at 2016-May-29 02:11 UTC. Time now 2016-May-30 06:51 UTC.
Position N 48°57' E 008°11'.

Length 110 m; draft 0.1 m.

Type: Tanker. MMSI: 244650752.

Date/timePositionNaut miles runAvg speedWind from/ knotsBaromVisibWave heightAir tempDewpointWater temp
2016-May-29 02:11N 48°57' E 008°11'2 3.4
2016-May-29 01:33N 48°58' E 008°14'4 3.8
2016-May-29 00:33N 49°01' E 008°18'4 3.9
2016-May-28 23:33N 49°05' E 008°20'0 0.4
2016-May-28 22:33N 49°04' E 008°20'0 0.0
2016-May-28 21:31N 49°04' E 008°20'0 0.0
2016-May-28 20:33N 49°04' E 008°20'0 0.0
2016-May-28 19:33N 49°04' E 008°20'0 0.0
2016-May-28 18:33N 49°04' E 008°20'0 0.0
2016-May-28 17:33N 49°04' E 008°20'0 0.0
2016-May-28 15:34N 49°04' E 008°20'0 0.0
2016-May-28 14:33N 49°04' E 008°20'0 0.0
2016-May-28 13:33N 49°04' E 008°20'0 0.2
2016-May-28 12:33N 49°04' E 008°20'0 0.0
2016-May-28 11:33N 49°04' E 008°20'0 0.0
2016-May-28 10:34N 49°04' E 008°20'0 0.0
2016-May-28 09:33N 49°04' E 008°20'0 0.0
2016-May-28 08:33N 49°04' E 008°20'0 0.0
2016-May-28 07:33N 49°04' E 008°20'0 0.0
2016-May-28 06:33N 49°04' E 008°20'0 0.0
2016-May-28 05:33N 49°04' E 008°20'0 0.0
2016-May-28 04:33N 49°04' E 008°20'0 0.0
2016-May-28 03:33N 49°04' E 008°20'0 0.0
2016-May-28 02:33N 49°04' E 008°20'0 0.0
2016-May-28 01:33N 49°04' E 008°20'0 0.0
2016-May-28 00:33N 49°04' E 008°20'0 0.0
2016-May-27 23:33N 49°04' E 008°20'1 1.4
2016-May-27 22:33N 49°03' E 008°19'18 8.5
2016-May-27 20:27N 48°48' E 008°05'72 5.2
2016-May-27 06:33N 47°39' E 007°32'0 0.2
2016-May-27 05:33N 47°39' E 007°32'4 4.0
2016-May-27 04:33N 47°36' E 007°36'3 2.9
2016-May-27 03:33N 47°34' E 007°38'0 0.3
2016-May-27 02:34N 47°33' E 007°38'0 0.0
2016-May-27 01:33N 47°33' E 007°38'0 0.0
2016-May-27 00:33N 47°33' E 007°38'0 0.0
2016-May-26 23:33N 47°33' E 007°38'0 0.0
2016-May-26 22:33N 47°33' E 007°38'0 0.0
2016-May-26 21:33N 47°33' E 007°38'0 0.0
2016-May-26 20:33N 47°33' E 007°38'0 0.0
2016-May-26 19:33N 47°33' E 007°38'0 0.0
2016-May-26 18:33N 47°33' E 007°38'0 0.0
2016-May-26 17:33N 47°33' E 007°38'0 0.0
2016-May-26 16:33N 47°33' E 007°38'0 0.0
2016-May-26 15:33N 47°33' E 007°38'0 0.0
2016-May-26 14:34N 47°33' E 007°38'0 0.0
2016-May-26 13:33N 47°33' E 007°38'0 0.0
2016-May-26 12:34N 47°33' E 007°38'0 0.0
2016-May-26 11:33N 47°33' E 007°38'0 0.0
2016-May-26 10:34N 47°33' E 007°38'0 0.0
2016-May-26 09:34N 47°33' E 007°38'0 0.0
2016-May-26 08:33N 47°33' E 007°38'0 0.0
2016-May-26 07:33N 47°33' E 007°38'0 0.3
2016-May-26 06:32N 47°34' E 007°38'0 0.4
2016-May-26 05:33N 47°34' E 007°37'2 1.5
2016-May-26 04:21N 47°34' E 007°35'1 1.4
2016-May-26 03:33N 47°36' E 007°35'86 3.7
2016-May-25 04:26N 48°58' E 008°13'3 4.0
2016-May-25 03:33N 48°60' E 008°17'4 4.1
2016-May-25 02:33N 49°04' E 008°19'1 1.0
2016-May-25 01:32N 49°04' E 008°20'0 0.0
2016-May-25 00:33N 49°04' E 008°20'0 0.0
2016-May-24 23:33N 49°04' E 008°20'0 0.0
2016-May-24 22:33N 49°04' E 008°20'0 0.0
2016-May-24 21:33N 49°04' E 008°20'0 0.0
2016-May-24 20:33N 49°04' E 008°20'0 0.0
2016-May-24 19:03N 49°04' E 008°20'0 0.0
2016-May-24 18:34N 49°04' E 008°20'0 0.2
2016-May-24 17:09N 49°04' E 008°20'0 0.0
2016-May-24 16:33N 49°04' E 008°20'0 0.0
2016-May-24 14:32N 49°04' E 008°20'0 0.0
2016-May-24 12:14N 49°04' E 008°20'0 0.0
2016-May-24 11:34N 49°04' E 008°20'0 0.0
2016-May-24 10:16N 49°04' E 008°20'0 0.0
2016-May-24 08:33N 49°04' E 008°20'0 0.0
2016-May-24 05:30N 49°04' E 008°20'0 0.0
2016-May-24 04:33N 49°04' E 008°20'0 0.0
2016-May-24 03:33N 49°04' E 008°20'0 0.0
2016-May-24 02:33N 49°04' E 008°20'0 0.0
2016-May-24 01:33N 49°04' E 008°20'0 0.0
2016-May-23 23:33N 49°04' E 008°20'0 0.0
2016-May-23 21:32N 49°04' E 008°20'0 0.0
2016-May-23 20:27N 49°04' E 008°20'0 0.0
2016-May-23 19:28N 49°04' E 008°20'3 3.6
2016-May-23 18:32N 49°01' E 008°18'5 0.3
2016-May-22 23:16N 48°58' E 008°13'3 4.0
2016-May-22 22:33N 48°59' E 008°17'4 3.9
2016-May-22 21:33N 49°03' E 008°19'4 4.0
2016-May-22 20:33N 49°06' E 008°22'4 3.9
2016-May-22 19:33N 49°10' E 008°22'4 4.0
2016-May-22 18:33N 49°14' E 008°24'5 4.4
2016-May-22 17:31N 49°17' E 008°29'3 3.4
2016-May-22 16:33N 49°20' E 008°28'95 3.4
2016-May-21 12:26N 50°41' E 007°11'4 4.7
2016-May-21 11:33N 50°44' E 007°07'5 4.7
2016-May-21 10:33N 50°48' E 007°02'4 3.8
2016-May-21 09:34N 50°51' E 006°59'0 0.1
2016-May-21 08:33N 50°51' E 006°59'0 0.0
2016-May-21 07:33N 50°51' E 006°59'0 0.0
2016-May-21 06:33N 50°51' E 006°59'0 0.0
2016-May-21 05:33N 50°51' E 006°59'0 0.0
2016-May-21 04:33N 50°51' E 006°59'0 0.0
2016-May-21 00:05N 50°51' E 006°59'0 0.0
2016-May-20 21:22N 50°51' E 006°59'3 4.2
2016-May-20 20:33N 50°54' E 007°03'4 3.6
2016-May-20 19:29N 50°56' E 006°58'0 0.0
2016-May-20 18:33N 50°56' E 006°58'0 0.0
2016-May-20 17:33N 50°56' E 006°58'0 0.0
2016-May-20 16:32N 50°56' E 006°58'0 0.0
2016-May-20 15:32N 50°56' E 006°58'0 0.0
2016-May-20 14:31N 50°56' E 006°58'0 0.0
2016-May-20 13:30N 50°56' E 006°58'0 0.0
2016-May-20 12:30N 50°56' E 006°58'0 0.0
2016-May-20 11:29N 50°56' E 006°58'0 0.0
2016-May-20 10:29N 50°56' E 006°58'4 3.9
2016-May-20 09:33N 50°54' E 007°02'10 9.7
2016-May-20 08:33N 50°44' E 007°07'99 8.2
2016-May-19 20:33N 49°21' E 008°29'9 8.6
2016-May-19 19:33N 49°14' E 008°23'1010.1
2016-May-19 18:34N 49°04' E 008°19'  
Track history (hours):
 
Tides and Currents Weather Stations Pressure Air Temp Water Temp Dewpoint Dewpoint Depression Visibility Wind Speed Wind Dir Waves Ship Positions

Astra

Last reported at 2016-May-29 02:11 UTC. Time now 2016-May-30 06:51 UTC.
Position N 48°57' E 008°11'.

Length 110 m; draft 0.1 m.

Type: Tanker. MMSI: 244650752.

Date/timePositionNaut miles runAvg speedWind from/ knotsBaromVisibWave heightAir tempDewpointWater temp
2016-May-29 02:11N 48°57' E 008°11'2 3.4
2016-May-29 01:33N 48°58' E 008°14'4 3.8
2016-May-29 00:33N 49°01' E 008°18'4 3.9
2016-May-28 23:33N 49°05' E 008°20'0 0.4
2016-May-28 22:33N 49°04' E 008°20'0 0.0
2016-May-28 21:31N 49°04' E 008°20'0 0.0
2016-May-28 20:33N 49°04' E 008°20'0 0.0
2016-May-28 19:33N 49°04' E 008°20'0 0.0
2016-May-28 18:33N 49°04' E 008°20'0 0.0
2016-May-28 17:33N 49°04' E 008°20'0 0.0
2016-May-28 15:34N 49°04' E 008°20'0 0.0
2016-May-28 14:33N 49°04' E 008°20'0 0.0
2016-May-28 13:33N 49°04' E 008°20'0 0.2
2016-May-28 12:33N 49°04' E 008°20'0 0.0
2016-May-28 11:33N 49°04' E 008°20'0 0.0
2016-May-28 10:34N 49°04' E 008°20'0 0.0
2016-May-28 09:33N 49°04' E 008°20'0 0.0
2016-May-28 08:33N 49°04' E 008°20'0 0.0
2016-May-28 07:33N 49°04' E 008°20'0 0.0
2016-May-28 06:33N 49°04' E 008°20'0 0.0
2016-May-28 05:33N 49°04' E 008°20'0 0.0
2016-May-28 04:33N 49°04' E 008°20'0 0.0
2016-May-28 03:33N 49°04' E 008°20'0 0.0
2016-May-28 02:33N 49°04' E 008°20'0 0.0
2016-May-28 01:33N 49°04' E 008°20'0 0.0
2016-May-28 00:33N 49°04' E 008°20'0 0.0
2016-May-27 23:33N 49°04' E 008°20'1 1.4
2016-May-27 22:33N 49°03' E 008°19'18 8.5
2016-May-27 20:27N 48°48' E 008°05'72 5.2
2016-May-27 06:33N 47°39' E 007°32'0 0.2
2016-May-27 05:33N 47°39' E 007°32'4 4.0
2016-May-27 04:33N 47°36' E 007°36'3 2.9
2016-May-27 03:33N 47°34' E 007°38'0 0.3
2016-May-27 02:34N 47°33' E 007°38'0 0.0
2016-May-27 01:33N 47°33' E 007°38'0 0.0
2016-May-27 00:33N 47°33' E 007°38'0 0.0
2016-May-26 23:33N 47°33' E 007°38'0 0.0
2016-May-26 22:33N 47°33' E 007°38'0 0.0
2016-May-26 21:33N 47°33' E 007°38'0 0.0
2016-May-26 20:33N 47°33' E 007°38'0 0.0
2016-May-26 19:33N 47°33' E 007°38'0 0.0
2016-May-26 18:33N 47°33' E 007°38'0 0.0
2016-May-26 17:33N 47°33' E 007°38'0 0.0
2016-May-26 16:33N 47°33' E 007°38'0 0.0
2016-May-26 15:33N 47°33' E 007°38'0 0.0
2016-May-26 14:34N 47°33' E 007°38'0 0.0
2016-May-26 13:33N 47°33' E 007°38'0 0.0
2016-May-26 12:34N 47°33' E 007°38'0 0.0
2016-May-26 11:33N 47°33' E 007°38'0 0.0
2016-May-26 10:34N 47°33' E 007°38'0 0.0
2016-May-26 09:34N 47°33' E 007°38'0 0.0
2016-May-26 08:33N 47°33' E 007°38'0 0.0
2016-May-26 07:33N 47°33' E 007°38'0 0.3
2016-May-26 06:32N 47°34' E 007°38'0 0.4
2016-May-26 05:33N 47°34' E 007°37'2 1.5
2016-May-26 04:21N 47°34' E 007°35'1 1.4
2016-May-26 03:33N 47°36' E 007°35'86 3.7
2016-May-25 04:26N 48°58' E 008°13'3 4.0
2016-May-25 03:33N 48°60' E 008°17'4 4.1
2016-May-25 02:33N 49°04' E 008°19'1 1.0
2016-May-25 01:32N 49°04' E 008°20'0 0.0
2016-May-25 00:33N 49°04' E 008°20'0 0.0
2016-May-24 23:33N 49°04' E 008°20'0 0.0
2016-May-24 22:33N 49°04' E 008°20'0 0.0
2016-May-24 21:33N 49°04' E 008°20'0 0.0
2016-May-24 20:33N 49°04' E 008°20'0 0.0
2016-May-24 19:03N 49°04' E 008°20'0 0.0
2016-May-24 18:34N 49°04' E 008°20'0 0.2
2016-May-24 17:09N 49°04' E 008°20'0 0.0
2016-May-24 16:33N 49°04' E 008°20'0 0.0
2016-May-24 14:32N 49°04' E 008°20'0 0.0
2016-May-24 12:14N 49°04' E 008°20'0 0.0
2016-May-24 11:34N 49°04' E 008°20'0 0.0
2016-May-24 10:16N 49°04' E 008°20'0 0.0
2016-May-24 08:33N 49°04' E 008°20'0 0.0
2016-May-24 05:30N 49°04' E 008°20'0 0.0
2016-May-24 04:33N 49°04' E 008°20'0 0.0
2016-May-24 03:33N 49°04' E 008°20'0 0.0
2016-May-24 02:33N 49°04' E 008°20'0 0.0
2016-May-24 01:33N 49°04' E 008°20'0 0.0
2016-May-23 23:33N 49°04' E 008°20'0 0.0
2016-May-23 21:32N 49°04' E 008°20'0 0.0
2016-May-23 20:27N 49°04' E 008°20'0 0.0
2016-May-23 19:28N 49°04' E 008°20'3 3.6
2016-May-23 18:32N 49°01' E 008°18'5 0.3
2016-May-22 23:16N 48°58' E 008°13'3 4.0
2016-May-22 22:33N 48°59' E 008°17'4 3.9
2016-May-22 21:33N 49°03' E 008°19'4 4.0
2016-May-22 20:33N 49°06' E 008°22'4 3.9
2016-May-22 19:33N 49°10' E 008°22'4 4.0
2016-May-22 18:33N 49°14' E 008°24'5 4.4
2016-May-22 17:31N 49°17' E 008°29'3 3.4
2016-May-22 16:33N 49°20' E 008°28'95 3.4
2016-May-21 12:26N 50°41' E 007°11'4 4.7
2016-May-21 11:33N 50°44' E 007°07'5 4.7
2016-May-21 10:33N 50°48' E 007°02'4 3.8
2016-May-21 09:34N 50°51' E 006°59'0 0.1
2016-May-21 08:33N 50°51' E 006°59'0 0.0
2016-May-21 07:33N 50°51' E 006°59'0 0.0
2016-May-21 06:33N 50°51' E 006°59'0 0.0
2016-May-21 05:33N 50°51' E 006°59'0 0.0
2016-May-21 04:33N 50°51' E 006°59'0 0.0
2016-May-21 00:05N 50°51' E 006°59'0 0.0
2016-May-20 21:22N 50°51' E 006°59'3 4.2
2016-May-20 20:33N 50°54' E 007°03'4 3.6
2016-May-20 19:29N 50°56' E 006°58'0 0.0
2016-May-20 18:33N 50°56' E 006°58'0 0.0
2016-May-20 17:33N 50°56' E 006°58'0 0.0
2016-May-20 16:32N 50°56' E 006°58'0 0.0
2016-May-20 15:32N 50°56' E 006°58'0 0.0
2016-May-20 14:31N 50°56' E 006°58'0 0.0
2016-May-20 13:30N 50°56' E 006°58'0 0.0
2016-May-20 12:30N 50°56' E 006°58'0 0.0
2016-May-20 11:29N 50°56' E 006°58'0 0.0
2016-May-20 10:29N 50°56' E 006°58'4 3.9
2016-May-20 09:33N 50°54' E 007°02'10 9.7
2016-May-20 08:33N 50°44' E 007°07'99 8.2
2016-May-19 20:33N 49°21' E 008°29'9 8.6
2016-May-19 19:33N 49°14' E 008°23'1010.1
2016-May-19 18:34N 49°04' E 008°19'  

Dump ship's entire track history